Andrews, Indiana
Current Conditions -  °F | °C
As of 5:55 PM on Wednesday 17 Dec 2014 (Local Time) from KHHG Reporting Station
Overcast Overcast  
Wind Chill: 17°   Ceiling: 1600
Heat Index: 25°   Visibility: 10mi
Dew Point: 21°   Wind: 7mph
Humidity: 83%   Direction: 290°WNW
Pressure: 30.22"   Gusts: NA
Location:  40.86°N, 85.6°W
Report Text: KHHG 172255Z AUTO 29006KT 10SM OVC016 M04/M06 A3022 RMK AO2 T10381063
Loading
Personal Weather Stations






























Interactive Weather Map New forecast layout! Learn more

10-Day Weather Forecast

Advertisements
Track Severe Weather on mobile